sensor_id;sensor_type;location;lat;lon;timestamp;P1;durP1;ratioP1;P2;durP2;ratioP2
37791;SDS011;29527;55.766;37.570;2022-09-17T00:00:15;10.43;;;7.55;;
37791;SDS011;29527;55.766;37.570;2022-09-17T00:02:41;9.15;;;7.82;;
37791;SDS011;29527;55.766;37.570;2022-09-17T00:05:09;11.98;;;7.88;;
37791;SDS011;29527;55.766;37.570;2022-09-17T00:07:34;9.27;;;7.72;;
37791;SDS011;29527;55.766;37.570;2022-09-17T00:10:00;9.60;;;7.18;;
37791;SDS011;29527;55.766;37.570;2022-09-17T00:12:25;9.27;;;7.40;;
37791;SDS011;29527;55.766;37.570;2022-09-17T00:14:51;11.32;;;7.63;;
37791;SDS011;29527;55.766;37.570;2022-09-17T00:17:16;9.80;;;7.63;;
37791;SDS011;29527;55.766;37.570;2022-09-17T00:19:42;9.60;;;7.30;;
37791;SDS011;29527;55.766;37.570;2022-09-17T00:22:07;9.05;;;7.47;;
37791;SDS011;29527;55.766;37.570;2022-09-17T00:24:33;8.77;;;7.05;;
37791;SDS011;29527;55.766;37.570;2022-09-17T00:26:58;9.48;;;6.40;;
37791;SDS011;29527;55.766;37.570;2022-09-17T00:29:24;8.43;;;7.20;;
37791;SDS011;29527;55.766;37.570;2022-09-17T00:31:49;9.13;;;6.78;;
37791;SDS011;29527;55.766;37.570;2022-09-17T00:34:15;9.43;;;7.30;;
37791;SDS011;29527;55.766;37.570;2022-09-17T00:36:40;10.35;;;6.72;;
37791;SDS011;29527;55.766;37.570;2022-09-17T00:39:06;10.75;;;6.75;;
37791;SDS011;29527;55.766;37.570;2022-09-17T00:41:34;11.25;;;6.82;;
37791;SDS011;29527;55.766;37.570;2022-09-17T00:44:37;11.65;;;6.53;;
37791;SDS011;29527;55.766;37.570;2022-09-17T00:47:06;8.45;;;6.53;;
37791;SDS011;29527;55.766;37.570;2022-09-17T00:49:36;8.20;;;6.40;;
37791;SDS011;29527;55.766;37.570;2022-09-17T00:52:07;8.25;;;6.07;;
37791;SDS011;29527;55.766;37.570;2022-09-17T00:54:35;7.65;;;6.68;;
37791;SDS011;29527;55.766;37.570;2022-09-17T00:57:04;8.13;;;6.53;;
37791;SDS011;29527;55.766;37.570;2022-09-17T00:59:30;9.77;;;5.78;;
37791;SDS011;29527;55.766;37.570;2022-09-17T01:01:55;7.43;;;5.80;;
37791;SDS011;29527;55.766;37.570;2022-09-17T01:04:22;11.27;;;6.30;;
37791;SDS011;29527;55.766;37.570;2022-09-17T01:06:56;12.45;;;6.60;;
37791;SDS011;29527;55.766;37.570;2022-09-17T01:15:20;7.55;;;5.95;;
37791;SDS011;29527;55.766;37.570;2022-09-17T01:31:33;10.52;;;6.50;;
37791;SDS011;29527;55.766;37.570;2022-09-17T01:34:13;9.80;;;6.00;;
37791;SDS011;29527;55.766;37.570;2022-09-17T01:36:55;6.70;;;5.82;;
37791;SDS011;29527;55.766;37.570;2022-09-17T01:42:25;7.28;;;6.35;;
37791;SDS011;29527;55.766;37.570;2022-09-17T01:47:58;10.52;;;6.43;;
37791;SDS011;29527;55.766;37.570;2022-09-17T01:50:30;10.25;;;7.07;;
37791;SDS011;29527;55.766;37.570;2022-09-17T01:53:02;9.32;;;6.68;;
37791;SDS011;29527;55.766;37.570;2022-09-17T01:55:30;11.63;;;6.82;;
37791;SDS011;29527;55.766;37.570;2022-09-17T01:58:00;9.77;;;7.00;;
37791;SDS011;29527;55.766;37.570;2022-09-17T02:00:32;10.35;;;7.40;;
37791;SDS011;29527;55.766;37.570;2022-09-17T02:03:03;10.55;;;7.65;;
37791;SDS011;29527;55.766;37.570;2022-09-17T02:08:21;9.90;;;7.15;;
37791;SDS011;29527;55.766;37.570;2022-09-17T02:10:54;14.60;;;8.02;;
37791;SDS011;29527;55.766;37.570;2022-09-17T02:13:31;12.77;;;7.30;;
37791;SDS011;29527;55.766;37.570;2022-09-17T02:16:10;12.98;;;7.13;;
37791;SDS011;29527;55.766;37.570;2022-09-17T02:21:33;10.82;;;7.10;;
37791;SDS011;29527;55.766;37.570;2022-09-17T02:24:19;8.60;;;7.15;;
37791;SDS011;29527;55.766;37.570;2022-09-17T02:27:02;11.52;;;6.75;;
37791;SDS011;29527;55.766;37.570;2022-09-17T02:29:36;11.27;;;6.55;;
37791;SDS011;29527;55.766;37.570;2022-09-17T02:32:04;8.13;;;6.68;;
37791;SDS011;29527;55.766;37.570;2022-09-17T02:34:30;10.63;;;7.35;;
37791;SDS011;29527;55.766;37.570;2022-09-17T02:36:56;9.43;;;7.30;;
37791;SDS011;29527;55.766;37.570;2022-09-17T02:39:25;13.73;;;7.88;;
37791;SDS011;29527;55.766;37.570;2022-09-17T02:44:56;11.35;;;7.60;;
37791;SDS011;29527;55.766;37.570;2022-09-17T02:47:35;10.98;;;6.93;;
37791;SDS011;29527;55.766;37.570;2022-09-17T02:55:58;11.53;;;6.83;;
37791;SDS011;29527;55.766;37.570;2022-09-17T03:02:04;11.07;;;6.57;;
37791;SDS011;29527;55.766;37.570;2022-09-17T03:04:33;10.43;;;6.55;;
37791;SDS011;29527;55.766;37.570;2022-09-17T03:07:04;8.85;;;6.57;;
37791;SDS011;29527;55.766;37.570;2022-09-17T03:09:33;9.05;;;5.53;;
37791;SDS011;29527;55.766;37.570;2022-09-17T03:11:59;11.82;;;6.00;;
37791;SDS011;29527;55.766;37.570;2022-09-17T03:14:27;9.82;;;5.95;;
37791;SDS011;29527;55.766;37.570;2022-09-17T03:16:52;9.73;;;6.22;;
37791;SDS011;29527;55.766;37.570;2022-09-17T03:19:17;11.10;;;6.25;;
37791;SDS011;29527;55.766;37.570;2022-09-17T03:21:43;7.07;;;5.53;;
37791;SDS011;29527;55.766;37.570;2022-09-17T03:24:08;9.10;;;5.70;;
37791;SDS011;29527;55.766;37.570;2022-09-17T03:26:35;6.78;;;4.53;;
37791;SDS011;29527;55.766;37.570;2022-09-17T03:29:01;9.50;;;4.70;;
37791;SDS011;29527;55.766;37.570;2022-09-17T03:31:27;4.97;;;4.38;;
37791;SDS011;29527;55.766;37.570;2022-09-17T03:33:53;7.40;;;4.95;;
37791;SDS011;29527;55.766;37.570;2022-09-17T03:36:18;10.00;;;5.72;;
37791;SDS011;29527;55.766;37.570;2022-09-17T03:38:44;6.80;;;5.25;;
37791;SDS011;29527;55.766;37.570;2022-09-17T03:41:10;5.28;;;4.78;;
37791;SDS011;29527;55.766;37.570;2022-09-17T03:43:35;9.15;;;5.43;;
37791;SDS011;29527;55.766;37.570;2022-09-17T03:46:01;6.95;;;5.28;;
37791;SDS011;29527;55.766;37.570;2022-09-17T03:48:26;6.32;;;4.97;;
37791;SDS011;29527;55.766;37.570;2022-09-17T03:50:53;6.57;;;4.43;;
37791;SDS011;29527;55.766;37.570;2022-09-17T03:53:19;5.85;;;4.15;;
37791;SDS011;29527;55.766;37.570;2022-09-17T03:55:44;6.70;;;4.00;;
37791;SDS011;29527;55.766;37.570;2022-09-17T03:58:10;7.10;;;3.67;;
37791;SDS011;29527;55.766;37.570;2022-09-17T04:00:35;4.45;;;3.45;;
37791;SDS011;29527;55.766;37.570;2022-09-17T04:03:04;4.78;;;3.28;;
37791;SDS011;29527;55.766;37.570;2022-09-17T04:05:31;4.60;;;3.40;;
37791;SDS011;29527;55.766;37.570;2022-09-17T04:07:57;5.00;;;3.70;;
37791;SDS011;29527;55.766;37.570;2022-09-17T04:10:22;4.15;;;3.05;;
37791;SDS011;29527;55.766;37.570;2022-09-17T04:12:48;5.82;;;2.83;;
37791;SDS011;29527;55.766;37.570;2022-09-17T04:15:13;5.00;;;2.88;;
37791;SDS011;29527;55.766;37.570;2022-09-17T04:17:39;4.45;;;3.20;;
37791;SDS011;29527;55.766;37.570;2022-09-17T04:20:05;4.88;;;3.13;;
37791;SDS011;29527;55.766;37.570;2022-09-17T04:22:31;7.30;;;3.13;;
37791;SDS011;29527;55.766;37.570;2022-09-17T04:24:57;3.25;;;2.83;;
37791;SDS011;29527;55.766;37.570;2022-09-17T04:27:22;6.55;;;2.90;;
37791;SDS011;29527;55.766;37.570;2022-09-17T04:29:48;4.13;;;3.00;;
37791;SDS011;29527;55.766;37.570;2022-09-17T04:32:14;3.45;;;2.58;;
37791;SDS011;29527;55.766;37.570;2022-09-17T04:34:39;6.45;;;2.78;;
37791;SDS011;29527;55.766;37.570;2022-09-17T04:37:05;3.47;;;2.65;;
37791;SDS011;29527;55.766;37.570;2022-09-17T04:39:30;3.22;;;2.45;;
37791;SDS011;29527;55.766;37.570;2022-09-17T04:41:56;4.30;;;3.00;;
37791;SDS011;29527;55.766;37.570;2022-09-17T04:44:21;5.35;;;2.80;;
37791;SDS011;29527;55.766;37.570;2022-09-17T04:46:47;3.97;;;2.40;;
37791;SDS011;29527;55.766;37.570;2022-09-17T04:49:12;4.20;;;2.45;;
37791;SDS011;29527;55.766;37.570;2022-09-17T04:51:38;6.80;;;2.88;;
37791;SDS011;29527;55.766;37.570;2022-09-17T04:54:03;5.75;;;3.10;;
37791;SDS011;29527;55.766;37.570;2022-09-17T04:56:29;5.88;;;2.60;;
37791;SDS011;29527;55.766;37.570;2022-09-17T04:58:54;4.03;;;2.53;;
37791;SDS011;29527;55.766;37.570;2022-09-17T05:01:20;4.40;;;2.25;;
37791;SDS011;29527;55.766;37.570;2022-09-17T05:03:45;4.68;;;2.38;;
37791;SDS011;29527;55.766;37.570;2022-09-17T05:06:11;3.38;;;2.38;;
37791;SDS011;29527;55.766;37.570;2022-09-17T05:08:37;3.97;;;2.20;;
37791;SDS011;29527;55.766;37.570;2022-09-17T05:11:02;4.72;;;2.22;;
37791;SDS011;29527;55.766;37.570;2022-09-17T05:13:28;3.25;;;1.80;;
37791;SDS011;29527;55.766;37.570;2022-09-17T05:15:54;4.53;;;2.30;;
37791;SDS011;29527;55.766;37.570;2022-09-17T05:18:22;4.80;;;2.20;;
37791;SDS011;29527;55.766;37.570;2022-09-17T05:20:48;4.15;;;2.55;;
37791;SDS011;29527;55.766;37.570;2022-09-17T05:23:14;4.78;;;2.63;;
37791;SDS011;29527;55.766;37.570;2022-09-17T05:25:39;3.20;;;2.15;;
37791;SDS011;29527;55.766;37.570;2022-09-17T05:28:05;3.83;;;2.70;;
37791;SDS011;29527;55.766;37.570;2022-09-17T05:30:30;5.95;;;2.90;;
37791;SDS011;29527;55.766;37.570;2022-09-17T05:32:59;5.45;;;2.97;;
37791;SDS011;29527;55.766;37.570;2022-09-17T05:35:27;6.40;;;2.92;;
37791;SDS011;29527;55.766;37.570;2022-09-17T05:37:57;4.53;;;2.58;;
37791;SDS011;29527;55.766;37.570;2022-09-17T05:40:24;7.03;;;2.50;;
37791;SDS011;29527;55.766;37.570;2022-09-17T05:42:50;2.88;;;2.10;;
37791;SDS011;29527;55.766;37.570;2022-09-17T05:45:15;4.82;;;2.00;;
37791;SDS011;29527;55.766;37.570;2022-09-17T05:47:41;5.45;;;2.50;;
37791;SDS011;29527;55.766;37.570;2022-09-17T05:50:07;4.95;;;2.65;;
37791;SDS011;29527;55.766;37.570;2022-09-17T05:52:32;5.85;;;2.30;;
37791;SDS011;29527;55.766;37.570;2022-09-17T05:54:58;5.28;;;2.97;;
37791;SDS011;29527;55.766;37.570;2022-09-17T05:57:23;4.93;;;2.80;;
37791;SDS011;29527;55.766;37.570;2022-09-17T05:59:49;2.85;;;2.33;;
37791;SDS011;29527;55.766;37.570;2022-09-17T06:02:14;3.90;;;2.67;;
37791;SDS011;29527;55.766;37.570;2022-09-17T06:04:39;4.55;;;2.42;;
37791;SDS011;29527;55.766;37.570;2022-09-17T06:07:05;4.93;;;2.40;;
37791;SDS011;29527;55.766;37.570;2022-09-17T06:09:36;6.18;;;2.50;;
37791;SDS011;29527;55.766;37.570;2022-09-17T06:12:02;4.00;;;2.55;;
37791;SDS011;29527;55.766;37.570;2022-09-17T06:14:28;5.40;;;2.58;;
37791;SDS011;29527;55.766;37.570;2022-09-17T06:16:55;4.97;;;2.50;;
37791;SDS011;29527;55.766;37.570;2022-09-17T06:19:21;5.30;;;2.45;;
37791;SDS011;29527;55.766;37.570;2022-09-17T06:21:46;4.53;;;2.42;;
37791;SDS011;29527;55.766;37.570;2022-09-17T06:24:12;8.43;;;2.53;;
37791;SDS011;29527;55.766;37.570;2022-09-17T06:26:37;5.85;;;2.70;;
37791;SDS011;29527;55.766;37.570;2022-09-17T06:29:03;5.32;;;2.97;;
37791;SDS011;29527;55.766;37.570;2022-09-17T06:31:29;6.70;;;2.72;;
37791;SDS011;29527;55.766;37.570;2022-09-17T06:33:55;6.97;;;2.92;;
37791;SDS011;29527;55.766;37.570;2022-09-17T06:36:21;4.82;;;2.53;;
37791;SDS011;29527;55.766;37.570;2022-09-17T06:38:46;8.00;;;3.03;;
37791;SDS011;29527;55.766;37.570;2022-09-17T06:41:12;8.93;;;3.03;;
37791;SDS011;29527;55.766;37.570;2022-09-17T06:43:39;7.45;;;2.97;;
37791;SDS011;29527;55.766;37.570;2022-09-17T06:46:04;8.95;;;3.05;;
37791;SDS011;29527;55.766;37.570;2022-09-17T06:48:32;5.35;;;2.60;;
37791;SDS011;29527;55.766;37.570;2022-09-17T06:51:02;5.85;;;2.65;;
37791;SDS011;29527;55.766;37.570;2022-09-17T06:53:32;4.93;;;2.53;;
37791;SDS011;29527;55.766;37.570;2022-09-17T06:56:00;5.00;;;2.63;;
37791;SDS011;29527;55.766;37.570;2022-09-17T06:58:27;8.82;;;3.17;;
37791;SDS011;29527;55.766;37.570;2022-09-17T07:00:56;8.45;;;2.63;;
37791;SDS011;29527;55.766;37.570;2022-09-17T07:03:26;7.60;;;2.60;;
37791;SDS011;29527;55.766;37.570;2022-09-17T07:05:52;7.93;;;3.00;;
37791;SDS011;29527;55.766;37.570;2022-09-17T07:08:18;6.72;;;2.83;;
37791;SDS011;29527;55.766;37.570;2022-09-17T07:10:43;6.35;;;2.95;;
37791;SDS011;29527;55.766;37.570;2022-09-17T07:13:09;10.00;;;3.00;;
37791;SDS011;29527;55.766;37.570;2022-09-17T07:15:34;10.55;;;2.80;;
37791;SDS011;29527;55.766;37.570;2022-09-17T07:18:06;7.07;;;2.40;;
37791;SDS011;29527;55.766;37.570;2022-09-17T07:20:35;8.13;;;2.72;;
37791;SDS011;29527;55.766;37.570;2022-09-17T07:23:01;8.45;;;2.60;;
37791;SDS011;29527;55.766;37.570;2022-09-17T07:25:27;11.68;;;2.47;;
37791;SDS011;29527;55.766;37.570;2022-09-17T07:27:52;5.10;;;2.30;;
37791;SDS011;29527;55.766;37.570;2022-09-17T07:30:19;9.43;;;2.40;;
37791;SDS011;29527;55.766;37.570;2022-09-17T07:32:44;8.18;;;2.20;;
37791;SDS011;29527;55.766;37.570;2022-09-17T07:35:10;14.63;;;2.33;;
37791;SDS011;29527;55.766;37.570;2022-09-17T07:37:36;8.25;;;2.55;;
37791;SDS011;29527;55.766;37.570;2022-09-17T07:40:02;11.05;;;2.28;;
37791;SDS011;29527;55.766;37.570;2022-09-17T07:42:31;5.50;;;1.88;;
37791;SDS011;29527;55.766;37.570;2022-09-17T07:44:57;10.05;;;2.72;;
37791;SDS011;29527;55.766;37.570;2022-09-17T07:47:22;7.78;;;2.10;;
37791;SDS011;29527;55.766;37.570;2022-09-17T07:49:48;6.60;;;2.58;;
37791;SDS011;29527;55.766;37.570;2022-09-17T07:52:13;6.72;;;2.17;;
37791;SDS011;29527;55.766;37.570;2022-09-17T07:54:39;6.65;;;2.00;;
37791;SDS011;29527;55.766;37.570;2022-09-17T07:57:04;6.15;;;2.17;;
37791;SDS011;29527;55.766;37.570;2022-09-17T07:59:30;5.22;;;2.13;;
37791;SDS011;29527;55.766;37.570;2022-09-17T08:01:55;6.47;;;2.38;;
37791;SDS011;29527;55.766;37.570;2022-09-17T08:04:21;7.78;;;1.85;;
37791;SDS011;29527;55.766;37.570;2022-09-17T08:06:47;5.63;;;2.40;;
37791;SDS011;29527;55.766;37.570;2022-09-17T08:09:13;9.07;;;2.63;;
37791;SDS011;29527;55.766;37.570;2022-09-17T08:11:40;5.78;;;1.98;;
37791;SDS011;29527;55.766;37.570;2022-09-17T08:14:11;7.38;;;2.20;;
37791;SDS011;29527;55.766;37.570;2022-09-17T08:16:37;9.65;;;2.55;;
37791;SDS011;29527;55.766;37.570;2022-09-17T08:19:03;7.80;;;2.15;;
37791;SDS011;29527;55.766;37.570;2022-09-17T08:21:29;8.50;;;1.95;;
37791;SDS011;29527;55.766;37.570;2022-09-17T08:23:55;7.85;;;2.00;;
37791;SDS011;29527;55.766;37.570;2022-09-17T08:26:21;8.80;;;2.00;;
37791;SDS011;29527;55.766;37.570;2022-09-17T08:28:49;5.28;;;1.98;;
37791;SDS011;29527;55.766;37.570;2022-09-17T08:31:18;7.25;;;2.03;;
37791;SDS011;29527;55.766;37.570;2022-09-17T08:33:44;3.70;;;1.80;;
37791;SDS011;29527;55.766;37.570;2022-09-17T08:36:11;5.45;;;2.10;;
37791;SDS011;29527;55.766;37.570;2022-09-17T08:38:38;6.35;;;2.42;;
37791;SDS011;29527;55.766;37.570;2022-09-17T08:43:41;6.32;;;2.28;;
37791;SDS011;29527;55.766;37.570;2022-09-17T08:46:09;6.05;;;2.03;;
37791;SDS011;29527;55.766;37.570;2022-09-17T08:48:41;8.80;;;2.00;;
37791;SDS011;29527;55.766;37.570;2022-09-17T08:54:10;9.27;;;2.08;;
37791;SDS011;29527;55.766;37.570;2022-09-17T08:56:45;6.85;;;1.98;;
37791;SDS011;29527;55.766;37.570;2022-09-17T08:59:26;7.60;;;2.08;;
37791;SDS011;29527;55.766;37.570;2022-09-17T09:05:09;5.47;;;2.33;;
37791;SDS011;29527;55.766;37.570;2022-09-17T09:08:24;9.23;;;2.13;;
37791;SDS011;29527;55.766;37.570;2022-09-17T09:10:48;4.60;;;1.90;;
37791;SDS011;29527;55.766;37.570;2022-09-17T09:13:23;5.50;;;2.03;;
37791;SDS011;29527;55.766;37.570;2022-09-17T09:15:55;5.07;;;1.52;;
37791;SDS011;29527;55.766;37.570;2022-09-17T09:18:27;4.28;;;1.60;;
37791;SDS011;29527;55.766;37.570;2022-09-17T09:35:14;6.32;;;1.58;;
37791;SDS011;29527;55.766;37.570;2022-09-17T09:37:41;3.63;;;1.27;;
37791;SDS011;29527;55.766;37.570;2022-09-17T09:40:18;5.90;;;1.60;;
37791;SDS011;29527;55.766;37.570;2022-09-17T09:42:54;7.60;;;1.30;;
37791;SDS011;29527;55.766;37.570;2022-09-17T09:45:30;7.63;;;1.13;;
37791;SDS011;29527;55.766;37.570;2022-09-17T09:56:52;5.93;;;1.58;;
37791;SDS011;29527;55.766;37.570;2022-09-17T09:59:21;7.00;;;1.83;;
37791;SDS011;29527;55.766;37.570;2022-09-17T10:01:47;5.30;;;2.00;;
37791;SDS011;29527;55.766;37.570;2022-09-17T10:04:20;4.38;;;1.10;;
37791;SDS011;29527;55.766;37.570;2022-09-17T10:06:51;2.50;;;0.90;;
37791;SDS011;29527;55.766;37.570;2022-09-17T10:09:19;3.40;;;1.00;;
37791;SDS011;29527;55.766;37.570;2022-09-17T10:14:24;5.32;;;1.40;;
37791;SDS011;29527;55.766;37.570;2022-09-17T10:20:30;4.95;;;0.90;;
37791;SDS011;29527;55.766;37.570;2022-09-17T10:22:38;4.20;;;1.10;;
37791;SDS011;29527;55.766;37.570;2022-09-17T10:25:05;3.10;;;0.77;;
37791;SDS011;29527;55.766;37.570;2022-09-17T10:27:44;5.53;;;1.38;;
37791;SDS011;29527;55.766;37.570;2022-09-17T10:32:36;5.22;;;1.33;;
37791;SDS011;29527;55.766;37.570;2022-09-17T10:42:44;6.97;;;1.73;;
37791;SDS011;29527;55.766;37.570;2022-09-17T10:45:26;4.00;;;1.00;;
37791;SDS011;29527;55.766;37.570;2022-09-17T10:47:58;4.55;;;1.45;;
37791;SDS011;29527;55.766;37.570;2022-09-17T10:50:25;4.45;;;1.10;;
37791;SDS011;29527;55.766;37.570;2022-09-17T10:52:54;2.80;;;1.10;;
37791;SDS011;29527;55.766;37.570;2022-09-17T10:55:36;4.32;;;1.55;;
37791;SDS011;29527;55.766;37.570;2022-09-17T11:11:46;3.42;;;1.30;;
37791;SDS011;29527;55.766;37.570;2022-09-17T11:17:07;4.45;;;1.17;;
37791;SDS011;29527;55.766;37.570;2022-09-17T11:27:51;6.00;;;1.60;;
37791;SDS011;29527;55.766;37.570;2022-09-17T11:30:20;3.63;;;1.40;;
37791;SDS011;29527;55.766;37.570;2022-09-17T11:33:31;3.85;;;1.48;;
37791;SDS011;29527;55.766;37.570;2022-09-17T11:35:46;4.05;;;1.70;;
37791;SDS011;29527;55.766;37.570;2022-09-17T11:38:23;4.30;;;1.67;;
37791;SDS011;29527;55.766;37.570;2022-09-17T11:41:21;3.75;;;1.40;;
37791;SDS011;29527;55.766;37.570;2022-09-17T11:52:04;7.03;;;1.48;;
37791;SDS011;29527;55.766;37.570;2022-09-17T11:54:39;6.03;;;1.88;;
37791;SDS011;29527;55.766;37.570;2022-09-17T11:57:14;5.60;;;1.70;;
37791;SDS011;29527;55.766;37.570;2022-09-17T11:59:48;6.68;;;1.80;;
37791;SDS011;29527;55.766;37.570;2022-09-17T12:05:06;5.18;;;1.70;;
37791;SDS011;29527;55.766;37.570;2022-09-17T12:07:58;6.22;;;1.88;;
37791;SDS011;29527;55.766;37.570;2022-09-17T12:13:17;5.28;;;1.50;;
37791;SDS011;29527;55.766;37.570;2022-09-17T12:16:06;3.55;;;1.42;;
37791;SDS011;29527;55.766;37.570;2022-09-17T12:21:04;4.90;;;1.60;;
37791;SDS011;29527;55.766;37.570;2022-09-17T12:23:43;6.93;;;1.65;;
37791;SDS011;29527;55.766;37.570;2022-09-17T12:31:20;6.72;;;1.40;;
37791;SDS011;29527;55.766;37.570;2022-09-17T12:33:57;4.25;;;1.27;;
37791;SDS011;29527;55.766;37.570;2022-09-17T12:37:01;6.10;;;1.20;;
37791;SDS011;29527;55.766;37.570;2022-09-17T12:42:27;6.60;;;1.42;;
37791;SDS011;29527;55.766;37.570;2022-09-17T12:45:03;4.15;;;1.50;;
37791;SDS011;29527;55.766;37.570;2022-09-17T12:53:36;6.43;;;1.45;;
37791;SDS011;29527;55.766;37.570;2022-09-17T13:10:07;7.65;;;1.92;;
37791;SDS011;29527;55.766;37.570;2022-09-17T13:12:44;7.38;;;1.70;;
37791;SDS011;29527;55.766;37.570;2022-09-17T13:20:59;5.55;;;1.70;;
37791;SDS011;29527;55.766;37.570;2022-09-17T13:26:08;4.22;;;2.08;;
37791;SDS011;29527;55.766;37.570;2022-09-17T13:28:36;6.43;;;1.73;;
37791;SDS011;29527;55.766;37.570;2022-09-17T13:31:06;7.55;;;2.45;;
37791;SDS011;29527;55.766;37.570;2022-09-17T13:36:39;5.68;;;1.73;;
37791;SDS011;29527;55.766;37.570;2022-09-17T13:39:31;4.38;;;1.65;;
37791;SDS011;29527;55.766;37.570;2022-09-17T13:47:33;10.98;;;1.98;;
37791;SDS011;29527;55.766;37.570;2022-09-17T13:50:05;7.85;;;2.10;;
37791;SDS011;29527;55.766;37.570;2022-09-17T13:55:28;3.83;;;1.80;;
37791;SDS011;29527;55.766;37.570;2022-09-17T13:57:55;5.28;;;2.10;;
37791;SDS011;29527;55.766;37.570;2022-09-17T14:05:56;8.02;;;2.00;;
37791;SDS011;29527;55.766;37.570;2022-09-17T14:16:33;11.88;;;2.20;;
37791;SDS011;29527;55.766;37.570;2022-09-17T14:37:57;6.43;;;2.05;;
37791;SDS011;29527;55.766;37.570;2022-09-17T14:40:27;7.93;;;1.90;;
37791;SDS011;29527;55.766;37.570;2022-09-17T14:42:55;4.63;;;1.40;;
37791;SDS011;29527;55.766;37.570;2022-09-17T14:45:23;3.83;;;1.60;;
37791;SDS011;29527;55.766;37.570;2022-09-17T14:53:44;6.15;;;1.60;;
37791;SDS011;29527;55.766;37.570;2022-09-17T14:56:12;4.22;;;1.60;;
37791;SDS011;29527;55.766;37.570;2022-09-17T14:58:40;11.07;;;2.35;;
37791;SDS011;29527;55.766;37.570;2022-09-17T15:01:20;7.00;;;2.33;;
37791;SDS011;29527;55.766;37.570;2022-09-17T15:03:48;7.95;;;2.22;;
37791;SDS011;29527;55.766;37.570;2022-09-17T15:06:20;3.90;;;1.85;;
37791;SDS011;29527;55.766;37.570;2022-09-17T15:08:46;5.45;;;1.75;;
37791;SDS011;29527;55.766;37.570;2022-09-17T15:11:11;3.95;;;1.70;;
37791;SDS011;29527;55.766;37.570;2022-09-17T15:13:43;8.85;;;2.10;;
37791;SDS011;29527;55.766;37.570;2022-09-17T15:16:26;7.95;;;2.63;;
37791;SDS011;29527;55.766;37.570;2022-09-17T15:18:58;4.60;;;2.00;;
37791;SDS011;29527;55.766;37.570;2022-09-17T15:21:38;5.55;;;2.08;;
37791;SDS011;29527;55.766;37.570;2022-09-17T15:26:38;6.13;;;2.20;;
37791;SDS011;29527;55.766;37.570;2022-09-17T15:29:09;14.43;;;6.05;;
37791;SDS011;29527;55.766;37.570;2022-09-17T15:31:36;6.43;;;2.58;;
37791;SDS011;29527;55.766;37.570;2022-09-17T15:34:02;6.28;;;2.10;;
37791;SDS011;29527;55.766;37.570;2022-09-17T15:36:27;4.20;;;2.05;;
37791;SDS011;29527;55.766;37.570;2022-09-17T15:38:55;3.65;;;2.10;;
37791;SDS011;29527;55.766;37.570;2022-09-17T15:41:24;5.07;;;2.78;;
37791;SDS011;29527;55.766;37.570;2022-09-17T15:43:51;5.72;;;2.83;;
37791;SDS011;29527;55.766;37.570;2022-09-17T15:46:24;9.85;;;2.83;;
37791;SDS011;29527;55.766;37.570;2022-09-17T15:48:51;3.92;;;2.45;;
37791;SDS011;29527;55.766;37.570;2022-09-17T15:53:50;5.95;;;2.28;;
37791;SDS011;29527;55.766;37.570;2022-09-17T15:56:22;4.72;;;2.60;;
37791;SDS011;29527;55.766;37.570;2022-09-17T15:58:52;7.30;;;3.13;;
37791;SDS011;29527;55.766;37.570;2022-09-17T16:07:30;6.80;;;2.97;;
37791;SDS011;29527;55.766;37.570;2022-09-17T16:09:44;7.30;;;2.92;;
37791;SDS011;29527;55.766;37.570;2022-09-17T16:12:20;7.10;;;2.90;;
37791;SDS011;29527;55.766;37.570;2022-09-17T16:14:54;11.32;;;3.50;;
37791;SDS011;29527;55.766;37.570;2022-09-17T16:19:58;8.63;;;3.10;;
37791;SDS011;29527;55.766;37.570;2022-09-17T16:22:25;5.88;;;2.80;;
37791;SDS011;29527;55.766;37.570;2022-09-17T16:24:51;3.55;;;2.35;;
37791;SDS011;29527;55.766;37.570;2022-09-17T16:27:18;8.07;;;2.70;;
37791;SDS011;29527;55.766;37.570;2022-09-17T16:29:46;6.55;;;2.80;;
37791;SDS011;29527;55.766;37.570;2022-09-17T16:32:13;6.65;;;2.92;;
37791;SDS011;29527;55.766;37.570;2022-09-17T16:34:39;4.88;;;2.55;;
37791;SDS011;29527;55.766;37.570;2022-09-17T16:37:04;7.47;;;2.85;;
37791;SDS011;29527;55.766;37.570;2022-09-17T16:39:30;7.90;;;2.85;;
37791;SDS011;29527;55.766;37.570;2022-09-17T16:41:55;6.30;;;2.70;;
37791;SDS011;29527;55.766;37.570;2022-09-17T16:44:21;8.00;;;3.22;;
37791;SDS011;29527;55.766;37.570;2022-09-17T16:46:46;7.75;;;3.17;;
37791;SDS011;29527;55.766;37.570;2022-09-17T16:49:15;7.55;;;3.25;;
37791;SDS011;29527;55.766;37.570;2022-09-17T16:51:40;7.18;;;3.30;;
37791;SDS011;29527;55.766;37.570;2022-09-17T16:54:06;8.23;;;3.50;;
37791;SDS011;29527;55.766;37.570;2022-09-17T16:56:32;8.35;;;3.15;;
37791;SDS011;29527;55.766;37.570;2022-09-17T16:58:57;9.38;;;3.85;;
37791;SDS011;29527;55.766;37.570;2022-09-17T17:01:23;8.43;;;3.20;;
37791;SDS011;29527;55.766;37.570;2022-09-17T17:03:51;7.32;;;3.13;;
37791;SDS011;29527;55.766;37.570;2022-09-17T17:06:18;5.43;;;2.75;;
37791;SDS011;29527;55.766;37.570;2022-09-17T17:08:45;5.72;;;3.20;;
37791;SDS011;29527;55.766;37.570;2022-09-17T17:11:11;11.38;;;3.47;;
37791;SDS011;29527;55.766;37.570;2022-09-17T17:13:37;7.93;;;3.40;;
37791;SDS011;29527;55.766;37.570;2022-09-17T17:16:06;10.70;;;3.85;;
37791;SDS011;29527;55.766;37.570;2022-09-17T17:18:33;7.45;;;3.40;;
37791;SDS011;29527;55.766;37.570;2022-09-17T17:21:05;7.20;;;4.30;;
37791;SDS011;29527;55.766;37.570;2022-09-17T17:23:32;8.32;;;4.05;;
37791;SDS011;29527;55.766;37.570;2022-09-17T17:25:58;11.70;;;4.38;;
37791;SDS011;29527;55.766;37.570;2022-09-17T17:28:24;8.55;;;5.10;;
37791;SDS011;29527;55.766;37.570;2022-09-17T17:30:50;8.32;;;4.57;;
37791;SDS011;29527;55.766;37.570;2022-09-17T17:33:15;6.60;;;4.25;;
37791;SDS011;29527;55.766;37.570;2022-09-17T17:35:41;11.02;;;4.50;;
37791;SDS011;29527;55.766;37.570;2022-09-17T17:38:06;17.92;;;3.95;;
37791;SDS011;29527;55.766;37.570;2022-09-17T17:40:31;7.82;;;3.38;;
37791;SDS011;29527;55.766;37.570;2022-09-17T17:42:57;7.90;;;3.75;;
37791;SDS011;29527;55.766;37.570;2022-09-17T17:45:22;8.88;;;3.75;;
37791;SDS011;29527;55.766;37.570;2022-09-17T17:47:48;6.88;;;3.35;;
37791;SDS011;29527;55.766;37.570;2022-09-17T17:50:13;10.73;;;3.83;;
37791;SDS011;29527;55.766;37.570;2022-09-17T17:52:40;6.45;;;3.28;;
37791;SDS011;29527;55.766;37.570;2022-09-17T17:55:08;6.38;;;3.60;;
37791;SDS011;29527;55.766;37.570;2022-09-17T17:57:34;5.70;;;3.70;;
37791;SDS011;29527;55.766;37.570;2022-09-17T18:00:00;6.05;;;3.83;;
37791;SDS011;29527;55.766;37.570;2022-09-17T18:02:26;6.85;;;3.38;;
37791;SDS011;29527;55.766;37.570;2022-09-17T18:04:51;7.25;;;3.22;;
37791;SDS011;29527;55.766;37.570;2022-09-17T18:07:16;11.57;;;3.33;;
37791;SDS011;29527;55.766;37.570;2022-09-17T18:09:42;5.07;;;3.08;;
37791;SDS011;29527;55.766;37.570;2022-09-17T18:12:07;7.25;;;3.72;;
37791;SDS011;29527;55.766;37.570;2022-09-17T18:14:33;5.97;;;3.50;;
37791;SDS011;29527;55.766;37.570;2022-09-17T18:16:58;5.28;;;3.20;;
37791;SDS011;29527;55.766;37.570;2022-09-17T18:19:24;6.65;;;3.50;;
37791;SDS011;29527;55.766;37.570;2022-09-17T18:21:49;10.43;;;3.30;;
37791;SDS011;29527;55.766;37.570;2022-09-17T18:24:14;5.78;;;3.63;;
37791;SDS011;29527;55.766;37.570;2022-09-17T18:26:40;6.95;;;3.40;;
37791;SDS011;29527;55.766;37.570;2022-09-17T18:29:05;6.45;;;3.22;;
37791;SDS011;29527;55.766;37.570;2022-09-17T18:31:32;7.80;;;3.60;;
37791;SDS011;29527;55.766;37.570;2022-09-17T18:34:03;7.60;;;4.18;;